Time;durP1;ratioP1;P1;durP2;ratioP2;P2;SDS_P1;SDS_P2;PMS_P1;PMS_P2;Temp;Humidity;BMP_temperature;BMP_pressure;BME280_temperature;BME280_humidity;BME280_pressure;Samples;Min_cycle;Max_cycle;Signal;HPM_P1;HPM_P2
2023/07/07 00:01:30;;;;;;;15.40;12.73;;;;;;;26.28;100.00;97758.94;5011003;28;20042;-67
2023/07/07 00:04:00;;;;;;;17.90;13.27;;;;;;;26.27;100.00;97760.88;5008987;28;20060;-67
2023/07/07 00:06:29;;;;;;;18.58;12.70;;;;;;;26.27;100.00;97754.63;5012824;28;20059;-67
2023/07/07 00:08:59;;;;;;;18.98;13.98;;;;;;;26.27;100.00;97757.34;5016647;28;20037;-67
2023/07/07 00:11:29;;;;;;;20.35;13.35;;;;;;;26.29;100.00;97752.38;5016493;28;20052;-67
2023/07/07 00:13:59;;;;;;;20.38;14.85;;;;;;;26.28;100.00;97751.59;5036148;28;20049;-67
2023/07/07 00:16:29;;;;;;;22.45;14.05;;;;;;;26.29;100.00;97752.38;5009455;28;20740;-67
2023/07/07 00:19:00;;;;;;;21.95;15.27;;;;;;;26.25;100.00;97751.41;5012838;28;20444;-67
2023/07/07 00:21:30;;;;;;;23.77;15.70;;;;;;;26.26;100.00;97753.81;5009131;28;20561;-67
2023/07/07 00:23:59;;;;;;;21.10;14.73;;;;;;;26.28;100.00;97765.19;5030556;28;20041;-67
2023/07/07 00:26:31;;;;;;;24.55;15.50;;;;;;;26.28;100.00;97770.63;5002519;28;20048;-67
2023/07/07 00:29:02;;;;;;;18.27;13.75;;;;;;;26.29;100.00;97757.81;5013153;28;20049;-67
2023/07/07 00:31:32;;;;;;;20.40;14.18;;;;;;;26.29;100.00;97766.75;5001819;28;20056;-68
2023/07/07 00:34:03;;;;;;;21.83;14.23;;;;;;;26.30;100.00;97765.66;5013971;28;20454;-68
2023/07/07 00:36:32;;;;;;;19.45;13.30;;;;;;;26.31;100.00;97775.41;4992160;28;20049;-68
2023/07/07 00:39:02;;;;;;;18.95;13.32;;;;;;;26.35;100.00;97772.84;4990901;28;20060;-68
2023/07/07 00:41:31;;;;;;;19.83;13.18;;;;;;;26.36;100.00;97774.44;5008951;28;20070;-68
2023/07/07 00:44:03;;;;;;;17.15;12.98;;;;;;;26.39;100.00;97779.25;5023417;28;20056;-68
2023/07/07 00:46:33;;;;;;;21.38;15.90;;;;;;;26.41;100.00;97776.22;4993480;28;20045;-68
2023/07/07 00:49:07;;;;;;;21.17;13.77;;;;;;;26.46;100.00;97771.44;5008922;28;20049;-68
2023/07/07 00:52:02;;;;;;;18.88;13.35;;;;;;;26.53;100.00;97773.66;5024254;28;20512;-68
2023/07/07 00:54:35;;;;;;;19.33;13.95;;;;;;;26.59;100.00;97777.84;5004985;28;20045;-68
2023/07/07 00:57:05;;;;;;;19.52;14.02;;;;;;;26.65;100.00;97784.69;5010775;28;20045;-68
2023/07/07 00:59:42;;;;;;;19.48;14.75;;;;;;;26.73;100.00;97781.97;5000000;28;20050;-68
2023/07/07 01:02:24;;;;;;;20.00;13.88;;;;;;;26.78;100.00;97784.53;5012621;28;20350;-68
2023/07/07 01:04:59;;;;;;;18.48;13.23;;;;;;;26.86;100.00;97787.63;5013810;28;20478;-68
2023/07/07 01:07:34;;;;;;;19.13;13.48;;;;;;;26.91;100.00;97782.03;5025693;28;20045;-67
2023/07/07 01:10:05;;;;;;;17.35;13.00;;;;;;;26.95;100.00;97781.06;5014366;28;20127;-68
2023/07/07 01:12:35;;;;;;;17.73;13.57;;;;;;;27.03;100.00;97776.72;5008578;28;20638;-68
2023/07/07 01:15:07;;;;;;;18.73;13.57;;;;;;;27.11;100.00;97786.78;5014445;28;20049;-68
2023/07/07 01:17:45;;;;;;;18.10;12.98;;;;;;;27.17;100.00;97788.22;5021307;28;20148;-68
2023/07/07 01:20:31;;;;;;;17.13;12.38;;;;;;;27.19;100.00;97789.50;5011719;28;20474;-68
2023/07/07 01:23:13;;;;;;;16.10;11.98;;;;;;;27.28;100.00;97786.75;4994542;28;20059;-69
2023/07/07 01:26:07;;;;;;;16.83;12.32;;;;;;;27.33;100.00;97791.22;5009390;28;20133;-67
2023/07/07 01:29:05;;;;;;;15.07;11.60;;;;;;;27.36;100.00;97796.00;5005639;28;20543;-66
2023/07/07 01:31:57;;;;;;;17.25;12.20;;;;;;;27.40;100.00;97789.59;5015180;28;20369;-67
2023/07/07 01:34:28;;;;;;;17.88;12.05;;;;;;;27.47;100.00;97784.47;5011929;28;20111;-67
2023/07/07 01:37:00;;;;;;;14.77;11.93;;;;;;;27.52;100.00;97781.63;5023580;28;20060;-67
2023/07/07 01:39:31;;;;;;;16.25;11.32;;;;;;;27.58;100.00;97788.47;4998564;28;20445;-67
2023/07/07 01:42:15;;;;;;;13.98;10.80;;;;;;;27.69;100.00;97776.09;5010545;28;20053;-67
2023/07/07 01:45:06;;;;;;;13.57;9.82;;;;;;;27.86;100.00;97774.44;4996640;28;20742;-67
2023/07/07 01:47:39;;;;;;;10.75;9.05;;;;;;;28.07;100.00;97784.25;5007138;28;20054;-67
2023/07/07 01:50:18;;;;;;;13.75;8.30;;;;;;;28.31;100.00;97780.13;5012625;28;20580;-67
2023/07/07 01:53:02;;;;;;;11.07;8.45;;;;;;;28.68;100.00;97789.34;5012800;28;20099;-68
2023/07/07 01:55:37;;;;;;;11.52;7.40;;;;;;;28.87;99.59;97795.94;5002795;28;20042;-67
2023/07/07 01:58:09;;;;;;;11.55;5.97;;;;;;;29.10;98.35;97784.66;4995371;28;20046;-67
2023/07/07 02:00:39;;;;;;;12.57;6.57;;;;;;;28.96;93.22;97787.69;5010078;28;20125;-67
2023/07/07 02:03:11;;;;;;;12.20;6.82;;;;;;;29.01;94.18;97782.03;5003841;28;20471;-69
2023/07/07 02:05:41;;;;;;;9.75;5.32;;;;;;;29.25;91.56;97786.78;5006615;28;20436;-69
2023/07/07 02:08:10;;;;;;;9.02;5.88;;;;;;;29.50;90.03;97785.72;5012675;28;20103;-69
2023/07/07 02:10:40;;;;;;;7.97;5.85;;;;;;;29.85;89.28;97792.38;5010439;28;20045;-68
2023/07/07 02:13:09;;;;;;;9.73;5.28;;;;;;;29.85;87.36;97802.50;5000014;28;20111;-67
2023/07/07 02:15:39;;;;;;;8.57;5.13;;;;;;;30.19;86.98;97801.28;5012766;28;20059;-68
2023/07/07 02:18:08;;;;;;;7.05;5.70;;;;;;;30.48;88.10;97803.78;5013360;28;20059;-67
2023/07/07 02:20:38;;;;;;;7.55;5.50;;;;;;;30.55;86.79;97809.47;5023195;28;20092;-67
2023/07/07 02:23:08;;;;;;;7.90;5.22;;;;;;;30.28;86.67;97815.63;5024434;28;20405;-69
2023/07/07 02:25:37;;;;;;;8.43;5.93;;;;;;;30.48;87.16;97814.72;5026772;28;20055;-67
2023/07/07 02:28:07;;;;;;;8.98;6.25;;;;;;;30.22;85.81;97806.88;5011987;28;20045;-67
2023/07/07 02:30:37;;;;;;;6.55;5.45;;;;;;;30.32;86.94;97814.59;4991155;28;20046;-68
2023/07/07 02:33:08;;;;;;;7.97;5.43;;;;;;;30.64;88.90;97806.59;5007608;28;20100;-67
2023/07/07 02:35:40;;;;;;;9.57;6.15;;;;;;;30.55;86.32;97803.19;5025866;28;20096;-68
2023/07/07 02:38:09;;;;;;;8.02;6.45;;;;;;;30.80;86.23;97809.44;4996227;28;20741;-67
2023/07/07 02:40:38;;;;;;;9.75;5.50;;;;;;;31.07;84.46;97801.25;5014782;28;20056;-67
2023/07/07 02:43:08;;;;;;;7.60;6.13;;;;;;;31.04;84.72;97810.16;5020493;28;20045;-67
2023/07/07 02:45:38;;;;;;;8.55;6.50;;;;;;;30.72;85.51;97805.66;5002649;28;20041;-67
2023/07/07 02:48:08;;;;;;;9.43;6.20;;;;;;;30.65;86.25;97805.47;5002933;28;20845;-67
2023/07/07 02:50:38;;;;;;;8.93;6.25;;;;;;;30.45;88.24;97811.88;4993704;28;20075;-67
2023/07/07 02:53:10;;;;;;;8.15;6.15;;;;;;;30.30;88.98;97803.22;5010744;28;20472;-68
2023/07/07 02:55:40;;;;;;;10.15;7.43;;;;;;;30.28;91.20;97812.88;4992783;28;20132;-68
2023/07/07 02:58:10;;;;;;;10.32;7.88;;;;;;;29.88;89.27;97819.03;5013676;28;20037;-69
2023/07/07 03:00:40;;;;;;;8.27;7.30;;;;;;;29.89;90.30;97819.81;4994491;28;20155;-68
2023/07/07 03:03:09;;;;;;;11.02;7.43;;;;;;;29.80;92.00;97821.81;4987166;28;20593;-68
2023/07/07 03:05:40;;;;;;;9.00;7.43;;;;;;;29.70;91.29;97822.25;5003268;28;20045;-67
2023/07/07 03:08:12;;;;;;;9.90;7.80;;;;;;;29.60;89.97;97831.69;4995198;28;20049;-68
2023/07/07 03:10:42;;;;;;;11.00;7.65;;;;;;;29.84;91.54;97820.81;5009027;28;20165;-68
2023/07/07 03:13:12;;;;;;;9.68;7.43;;;;;;;30.22;90.41;97827.94;5015008;28;20056;-68
2023/07/07 03:15:45;;;;;;;10.10;7.72;;;;;;;30.17;90.33;97825.41;5009874;28;20061;-68
2023/07/07 03:18:21;;;;;;;8.85;7.78;;;;;;;30.49;89.92;97821.00;5014555;28;20045;-68
2023/07/07 03:20:57;;;;;;;10.75;8.93;;;;;;;30.69;88.41;97826.31;5007118;28;20053;-68
2023/07/07 03:23:28;;;;;;;8.88;7.60;;;;;;;30.86;88.33;97819.75;5009792;28;20099;-68
2023/07/07 03:26:06;;;;;;;14.65;8.45;;;;;;;30.75;85.26;97827.66;5002428;28;20103;-68
2023/07/07 03:28:37;;;;;;;9.45;8.38;;;;;;;30.41;86.89;97835.53;4995489;28;20053;-67
2023/07/07 03:31:28;;;;;;;10.27;8.63;;;;;;;30.62;88.95;97836.22;4994479;28;20081;-68
2023/07/07 03:34:03;;;;;;;11.10;8.35;;;;;;;30.70;85.50;97833.38;4997365;28;20046;-68
2023/07/07 03:36:38;;;;;;;11.98;9.43;;;;;;;30.63;84.42;97829.59;5003039;28;20054;-68
2023/07/07 03:39:08;;;;;;;10.88;8.98;;;;;;;30.27;85.91;97833.16;4987695;28;20045;-68
2023/07/07 03:41:37;;;;;;;9.70;8.73;;;;;;;30.53;87.57;97830.09;5015251;28;20049;-68
2023/07/07 03:44:07;;;;;;;11.27;9.10;;;;;;;30.59;87.61;97831.44;5008529;28;20145;-68
2023/07/07 03:46:37;;;;;;;14.23;9.98;;;;;;;30.69;86.93;97830.97;4997702;28;20137;-68
2023/07/07 03:49:08;;;;;;;11.20;10.10;;;;;;;30.54;84.41;97826.19;5010196;28;20049;-68
2023/07/07 03:51:40;;;;;;;12.88;9.73;;;;;;;30.55;85.66;97827.81;5011738;28;20042;-68
2023/07/07 03:54:12;;;;;;;10.80;9.70;;;;;;;30.88;89.61;97828.44;4986552;28;20041;-68
2023/07/07 03:56:43;;;;;;;10.85;9.75;;;;;;;30.81;81.58;97825.47;5009762;28;20055;-69
2023/07/07 03:59:12;;;;;;;11.68;9.50;;;;;;;30.66;84.88;97823.47;5002693;28;20073;-69
2023/07/07 04:01:41;;;;;;;14.48;9.80;;;;;;;30.88;85.46;97828.44;5023350;28;20081;-68
2023/07/07 04:04:12;;;;;;;13.10;10.68;;;;;;;30.99;83.84;97837.72;5003716;28;20053;-68
2023/07/07 04:06:42;;;;;;;11.95;10.68;;;;;;;31.04;85.13;97834.78;5021346;28;20160;-68
2023/07/07 04:09:11;;;;;;;11.57;10.38;;;;;;;31.04;85.28;97834.78;5008996;28;20049;-68
2023/07/07 04:11:41;;;;;;;11.35;9.80;;;;;;;30.99;82.81;97829.53;5012574;28;20050;-68
2023/07/07 04:14:30;;;;;;;11.70;10.50;;;;;;;30.97;84.02;97831.03;4994829;28;20052;-69
2023/07/07 04:17:00;;;;;;;12.70;11.40;;;;;;;30.98;83.07;97835.34;5002270;28;20045;-69
2023/07/07 04:19:30;;;;;;;11.27;10.18;;;;;;;31.23;84.20;97828.66;4992203;28;20049;-69
2023/07/07 04:22:00;;;;;;;11.57;10.38;;;;;;;31.35;83.07;97825.88;5010862;28;20539;-69
2023/07/07 04:24:29;;;;;;;11.23;9.75;;;;;;;31.49;80.85;97822.72;4998492;28;20080;-69
2023/07/07 04:26:59;;;;;;;11.43;10.30;;;;;;;31.36;81.02;97827.47;5009394;28;20046;-69
2023/07/07 04:29:28;;;;;;;11.98;10.60;;;;;;;31.60;81.22;97821.09;5013838;28;20103;-69
2023/07/07 04:31:59;;;;;;;11.48;10.30;;;;;;;31.52;82.03;97836.50;5016654;28;20050;-69
2023/07/07 04:34:30;;;;;;;13.18;11.27;;;;;;;31.57;82.37;97832.75;5000353;28;20135;-69
2023/07/07 04:37:00;;;;;;;13.45;11.13;;;;;;;31.62;83.82;97829.75;5016170;28;20061;-68
2023/07/07 04:39:30;;;;;;;13.85;12.38;;;;;;;31.39;80.98;97828.69;5015389;28;20124;-69
2023/07/07 04:41:59;;;;;;;12.85;11.27;;;;;;;31.54;83.53;97834.22;5016035;28;20073;-70
2023/07/07 04:44:30;;;;;;;16.35;11.18;;;;;;;31.37;80.77;97828.28;4993896;28;21153;-69
2023/07/07 04:47:00;;;;;;;11.85;10.63;;;;;;;31.64;83.19;97824.72;5014669;28;20107;-67
2023/07/07 04:49:30;;;;;;;14.25;9.77;;;;;;;31.34;83.28;97837.16;4999881;28;20045;-68
2023/07/07 04:52:01;;;;;;;17.38;11.65;;;;;;;31.67;85.62;97834.97;5017254;28;20087;-69
2023/07/07 04:54:31;;;;;;;13.80;10.43;;;;;;;31.55;82.89;97832.31;4987223;28;20936;-69
2023/07/07 04:57:03;;;;;;;11.35;10.23;;;;;;;31.82;82.64;97828.69;4999122;28;20507;-69
2023/07/07 04:59:33;;;;;;;11.20;10.02;;;;;;;32.11;80.84;97830.25;5020041;28;20140;-68
2023/07/07 05:02:04;;;;;;;11.30;10.05;;;;;;;32.12;80.16;97831.03;5003842;28;20064;-69
2023/07/07 05:04:35;;;;;;;10.70;9.60;;;;;;;32.20;79.64;97832.81;4997003;28;20483;-69
2023/07/07 05:07:07;;;;;;;11.95;10.18;;;;;;;32.20;79.80;97835.53;5001322;28;20069;-69
2023/07/07 05:09:37;;;;;;;11.30;10.23;;;;;;;31.97;79.07;97843.56;5014624;28;20489;-68
2023/07/07 05:12:10;;;;;;;13.23;10.82;;;;;;;31.86;82.58;97843.31;4978675;28;20060;-68
2023/07/07 05:14:39;;;;;;;10.80;9.73;;;;;;;32.00;82.48;97846.38;4995946;28;20056;-68
2023/07/07 05:17:09;;;;;;;11.00;9.90;;;;;;;31.99;81.17;97839.34;5016244;28;20053;-68
2023/07/07 05:19:39;;;;;;;11.43;10.00;;;;;;;31.72;78.79;97839.41;5016168;28;20434;-69
2023/07/07 05:22:10;;;;;;;11.65;10.50;;;;;;;31.68;81.24;97842.03;4999301;28;20057;-69
2023/07/07 05:24:42;;;;;;;13.43;11.52;;;;;;;31.27;82.17;97853.38;5020757;28;20055;-69
2023/07/07 05:27:12;;;;;;;12.10;10.90;;;;;;;31.40;82.35;97850.25;5018436;28;20053;-69
2023/07/07 05:29:43;;;;;;;12.65;11.32;;;;;;;31.37;84.06;97855.63;5002686;28;20058;-69
2023/07/07 05:32:14;;;;;;;12.32;11.07;;;;;;;31.03;83.03;97859.72;5013657;28;20130;-69
2023/07/07 05:34:43;;;;;;;12.20;10.90;;;;;;;30.96;85.05;97859.50;5004916;28;20164;-69
2023/07/07 05:37:12;;;;;;;11.80;10.55;;;;;;;30.91;84.32;97860.53;5029050;28;20157;-69
2023/07/07 05:39:42;;;;;;;12.55;10.23;;;;;;;31.23;86.37;97866.97;5020423;28;20685;-68
2023/07/07 05:42:11;;;;;;;11.55;10.18;;;;;;;31.27;85.39;97865.13;5024761;28;20059;-68
2023/07/07 05:44:42;;;;;;;12.60;11.18;;;;;;;31.19;83.02;97860.59;5007400;28;20141;-69
2023/07/07 05:47:13;;;;;;;12.57;10.60;;;;;;;31.33;83.76;97863.75;5011320;28;20064;-69
2023/07/07 05:49:43;;;;;;;12.98;11.00;;;;;;;31.20;81.54;97856.75;5021206;28;20046;-69
2023/07/07 05:52:14;;;;;;;12.45;11.15;;;;;;;31.17;82.84;97860.94;5017098;28;20127;-68
2023/07/07 05:54:44;;;;;;;13.27;11.02;;;;;;;31.35;87.10;97857.91;5013686;28;20045;-68
2023/07/07 05:57:13;;;;;;;14.73;11.23;;;;;;;31.27;85.20;97858.88;5021119;28;20092;-68
2023/07/07 06:00:14;;;;;;;13.38;11.00;;;;;;;31.12;85.35;97860.38;5023430;28;20044;-68
2023/07/07 06:02:45;;;;;;;12.00;10.10;;;;;;;31.04;86.75;97858.59;5002274;28;20049;-69
2023/07/07 06:05:17;;;;;;;13.13;11.52;;;;;;;30.81;84.27;97866.47;5016645;28;20132;-68
2023/07/07 06:07:48;;;;;;;14.43;11.50;;;;;;;30.71;87.21;97859.53;5017145;28;20038;-68
2023/07/07 06:10:17;;;;;;;13.23;11.75;;;;;;;30.64;87.92;97850.34;5009658;28;20556;-69
2023/07/07 06:12:47;;;;;;;12.57;11.27;;;;;;;30.53;86.03;97857.44;5024864;28;20137;-69
2023/07/07 06:15:18;;;;;;;13.23;11.82;;;;;;;30.64;87.41;97853.88;5012907;28;20059;-70
2023/07/07 06:17:48;;;;;;;12.43;11.07;;;;;;;30.77;88.95;97843.72;5013543;28;20127;-70
2023/07/07 06:20:19;;;;;;;12.73;11.50;;;;;;;30.67;85.99;97844.19;5022368;28;20125;-70
2023/07/07 06:22:48;;;;;;;13.25;11.88;;;;;;;30.64;86.91;97840.22;5014188;28;20041;-69
2023/07/07 06:25:18;;;;;;;12.75;11.38;;;;;;;30.70;86.38;97832.56;4996367;28;20049;-69
2023/07/07 06:27:48;;;;;;;13.55;11.63;;;;;;;30.78;88.20;97828.91;5021067;28;20048;-70
2023/07/07 06:30:18;;;;;;;13.85;12.32;;;;;;;30.91;90.01;97832.41;4996174;28;20045;-69
2023/07/07 06:32:48;;;;;;;13.48;12.07;;;;;;;31.03;87.03;97833.19;5002043;28;20065;-70
2023/07/07 06:35:17;;;;;;;12.93;11.43;;;;;;;31.08;85.22;97837.59;5004159;28;20049;-70
2023/07/07 06:37:47;;;;;;;13.65;12.35;;;;;;;31.31;84.15;97827.72;5025150;28;20049;-70
2023/07/07 06:40:18;;;;;;;13.07;11.77;;;;;;;31.44;84.36;97825.72;5022359;28;20053;-69
2023/07/07 06:42:49;;;;;;;14.00;12.27;;;;;;;31.48;81.50;97826.59;5006246;28;20046;-69
2023/07/07 06:45:21;;;;;;;14.77;12.35;;;;;;;31.68;84.04;97816.59;5000999;28;20059;-69
2023/07/07 06:47:50;;;;;;;14.38;12.98;;;;;;;31.85;83.63;97816.25;5000343;28;20045;-71
2023/07/07 06:50:36;;;;;;;14.02;12.30;;;;;;;31.90;78.58;97811.31;5020954;28;20111;-68
2023/07/07 06:53:06;;;;;;;13.93;12.52;;;;;;;32.09;82.36;97805.13;5020695;28;20048;-73
2023/07/07 06:55:38;;;;;;;13.45;12.05;;;;;;;32.14;80.85;97804.06;5003817;28;20049;-69
2023/07/07 06:58:11;;;;;;;14.10;12.07;;;;;;;32.06;80.36;97795.66;5025209;28;20151;-71
2023/07/07 07:00:43;;;;;;;14.55;11.70;;;;;;;32.01;81.19;97795.13;5021829;28;20072;-70
2023/07/07 07:03:13;;;;;;;13.48;12.18;;;;;;;31.99;83.16;97800.97;5018930;28;20140;-69
2023/07/07 07:05:42;;;;;;;14.23;12.77;;;;;;;31.95;80.64;97797.34;5003215;28;20068;-67
2023/07/07 07:08:12;;;;;;;13.43;12.10;;;;;;;31.86;79.73;97790.47;5010105;28;20053;-69
2023/07/07 07:10:41;;;;;;;15.52;12.38;;;;;;;31.70;79.74;97786.91;5000494;28;20049;-68
2023/07/07 07:13:12;;;;;;;13.75;11.98;;;;;;;31.79;81.38;97787.53;5017847;28;20123;-69
2023/07/07 07:15:41;;;;;;;13.63;12.32;;;;;;;31.94;82.68;97790.28;5021376;28;20045;-68
2023/07/07 07:18:14;;;;;;;14.02;12.60;;;;;;;31.67;78.51;97779.41;5022375;28;20057;-70
2023/07/07 07:20:49;;;;;;;13.68;12.27;;;;;;;31.57;81.47;97791.69;4648065;28;10000383;-69
2023/07/07 07:23:19;;;;;;;13.80;12.40;;;;;;;31.56;82.31;97790.06;5007239;28;20060;-71
2023/07/07 07:25:49;;;;;;;13.63;12.30;;;;;;;31.41;80.85;97785.38;5000158;28;20045;-69
2023/07/07 07:28:19;;;;;;;14.93;12.90;;;;;;;31.37;82.26;97779.00;4997830;28;20161;-69
2023/07/07 07:30:49;;;;;;;14.27;12.75;;;;;;;31.40;81.83;97778.28;5020361;28;20148;-69
2023/07/07 07:33:22;;;;;;;13.75;12.32;;;;;;;31.56;80.09;97773.66;5001519;28;20045;-69
2023/07/07 07:35:52;;;;;;;13.27;11.90;;;;;;;31.57;81.32;97772.50;5001191;28;20052;-70
2023/07/07 07:38:21;;;;;;;13.18;11.88;;;;;;;31.67;82.93;97769.25;5014744;28;20148;-73
2023/07/07 07:40:53;;;;;;;14.13;12.02;;;;;;;31.63;81.63;97765.63;5012588;28;20049;-70
2023/07/07 07:43:23;;;;;;;14.43;12.95;;;;;;;31.88;84.19;97755.28;5012699;28;20060;-69
2023/07/07 07:45:55;;;;;;;15.32;13.93;;;;;;;31.92;82.18;97761.63;4994239;28;20073;-72
2023/07/07 07:48:26;;;;;;;14.60;13.20;;;;;;;31.83;79.14;97756.34;5010291;28;20049;-68
2023/07/07 07:50:55;;;;;;;18.23;13.98;;;;;;;31.85;80.34;97754.06;5016304;28;20057;-67
2023/07/07 07:53:26;;;;;;;14.52;13.13;;;;;;;31.65;79.54;97750.44;4661536;28;10000440;-68
2023/07/07 07:55:55;;;;;;;14.20;12.80;;;;;;;31.76;81.93;97747.97;5008389;28;20049;-68
2023/07/07 07:58:25;;;;;;;15.35;13.75;;;;;;;31.69;82.81;97747.78;4989462;28;20061;-69
2023/07/07 08:00:54;;;;;;;20.73;13.75;;;;;;;31.59;82.42;97738.16;5020087;28;20046;-67
2023/07/07 08:03:24;;;;;;;15.43;13.85;;;;;;;31.71;80.77;97739.22;5021570;28;20713;-69
2023/07/07 08:05:54;;;;;;;14.90;13.38;;;;;;;31.81;83.72;97734.00;5022071;28;20135;-69
2023/07/07 08:08:24;;;;;;;15.23;13.73;;;;;;;31.84;83.19;97727.81;5009623;28;20045;-69
2023/07/07 08:10:54;;;;;;;15.00;13.43;;;;;;;31.90;80.94;97718.19;5022331;28;20045;-70
2023/07/07 08:13:38;;;;;;;14.65;13.20;;;;;;;32.06;79.92;97713.47;5000664;28;20063;-71
2023/07/07 08:16:11;;;;;;;15.23;13.45;;;;;;;32.14;79.41;97717.19;4999583;28;20049;-70
2023/07/07 08:18:41;;;;;;;14.32;12.07;;;;;;;32.03;81.07;97716.94;5012625;28;20137;-66
2023/07/07 08:21:14;;;;;;;14.50;12.90;;;;;;;31.86;79.30;97709.09;5012561;28;20115;-67
2023/07/07 08:23:44;;;;;;;13.43;12.00;;;;;;;31.93;81.07;97709.25;5010534;28;20874;-69
2023/07/07 08:26:17;;;;;;;;;;;;;;;31.80;81.00;97702.28;5019621;28;20950;-67
2023/07/07 08:28:50;;;;;;;;;;;;;;;31.83;80.39;97692.56;4995586;28;19929;-68
2023/07/07 08:31:20;;;;;;;15.73;13.05;;;;;;;31.85;81.78;97688.31;5014175;28;20416;-67
2023/07/07 08:33:51;;;;;;;15.63;13.35;;;;;;;31.85;80.74;97690.25;5014899;28;20045;-68
2023/07/07 08:36:27;;;;;;;17.23;13.95;;;;;;;31.64;82.56;97691.34;5001231;28;20046;-68
2023/07/07 08:39:12;;;;;;;14.18;12.85;;;;;;;31.61;82.63;97696.72;5011679;28;20049;-70
2023/07/07 08:41:52;;;;;;;16.17;13.68;;;;;;;31.34;81.98;97687.44;5016951;28;20780;-69
2023/07/07 08:44:24;;;;;;;19.02;13.73;;;;;;;31.38;84.45;97688.31;5011933;28;20081;-69
2023/07/07 08:47:15;;;;;;;18.35;13.77;;;;;;;31.51;84.83;97697.25;4997928;28;20049;-69
2023/07/07 08:49:55;;;;;;;15.23;13.55;;;;;;;31.41;84.48;97684.09;4999603;28;20046;-69
2023/07/07 08:52:47;;;;;;;15.18;13.57;;;;;;;31.54;85.63;97678.19;5017396;28;20303;-69
2023/07/07 08:55:43;;;;;;;15.55;13.88;;;;;;;31.68;84.86;97668.75;4989617;28;20057;-68
2023/07/07 08:58:32;;;;;;;15.27;13.85;;;;;;;31.76;83.91;97665.81;4982655;28;20841;-69
2023/07/07 09:01:28;;;;;;;14.85;13.35;;;;;;;31.54;82.84;97663.69;5001613;28;20576;-67
2023/07/07 09:04:19;;;;;;;15.30;13.80;;;;;;;31.56;84.11;97661.41;4986388;28;20513;-70
2023/07/07 09:07:18;;;;;;;13.82;12.52;;;;;;;31.52;84.52;97661.28;5001066;28;20069;-68
2023/07/07 09:10:16;;;;;;;14.88;13.13;;;;;;;31.58;83.58;97653.66;5011841;28;20073;-67
2023/07/07 09:12:53;;;;;;;13.57;12.02;;;;;;;31.72;82.80;97643.03;4984364;28;20046;-70
2023/07/07 09:15:30;;;;;;;15.05;13.63;;;;;;;31.61;79.38;97642.78;5003467;28;20060;-69
2023/07/07 09:18:08;;;;;;;13.95;12.55;;;;;;;31.80;81.50;97636.56;5018824;28;20128;-69
2023/07/07 09:20:38;;;;;;;14.55;12.55;;;;;;;31.94;80.28;97625.94;5010840;28;20077;-67
2023/07/07 09:23:17;;;;;;;14.00;12.60;;;;;;;32.05;80.73;97626.94;5015321;28;20508;-67
2023/07/07 09:25:59;;;;;;;13.70;12.32;;;;;;;32.14;81.89;97628.69;5007827;28;20056;-68
2023/07/07 09:28:34;;;;;;;14.95;13.38;;;;;;;31.86;81.02;97623.38;5004470;28;20148;-71
2023/07/07 09:31:29;;;;;;;15.07;13.50;;;;;;;31.86;79.92;97626.94;5023508;28;20052;-70
2023/07/07 09:34:02;;;;;;;15.27;13.77;;;;;;;31.75;81.72;97627.81;5023856;28;20041;-69
2023/07/07 09:37:03;;;;;;;14.77;13.15;;;;;;;31.70;79.31;97623.41;5004392;28;20053;-69
2023/07/07 09:40:08;;;;;;;15.98;14.48;;;;;;;31.82;79.29;97604.13;5020096;28;20049;-70
2023/07/07 09:43:00;;;;;;;15.30;13.60;;;;;;;31.83;78.90;97607.66;5009266;28;20111;-67
2023/07/07 09:46:12;;;;;;;19.30;16.15;;;;;;;31.75;79.87;97606.72;4997815;28;20052;-70
2023/07/07 09:49:12;;;;;;;15.40;13.77;;;;;;;31.68;82.83;97598.34;4995636;28;20034;-70
2023/07/07 09:51:54;;;;;;;16.77;15.20;;;;;;;31.74;82.30;97590.63;4993433;28;20743;-79
2023/07/07 09:54:30;;;;;;;17.67;15.85;;;;;;;31.69;80.84;97583.47;4996065;28;20056;-67
2023/07/07 09:57:05;;;;;;;16.58;14.98;;;;;;;31.64;80.24;97579.06;5001431;28;20053;-67
2023/07/07 09:59:44;;;;;;;18.30;16.48;;;;;;;31.68;81.61;97572.91;5002242;28;20108;-68
2023/07/07 10:02:21;;;;;;;16.52;15.05;;;;;;;31.75;80.39;97571.09;5003040;28;20062;-68
2023/07/07 10:05:01;;;;;;;16.95;15.25;;;;;;;31.76;79.52;97561.75;5007576;28;20533;-67
2023/07/07 10:07:37;;;;;;;16.80;14.98;;;;;;;31.79;80.14;97562.97;4973725;28;20476;-72
2023/07/07 10:10:14;;;;;;;15.48;13.98;;;;;;;31.83;79.35;97555.63;5005670;28;20669;-68
2023/07/07 10:12:46;;;;;;;16.33;14.68;;;;;;;31.88;80.68;97552.59;4995229;28;20054;-69
2023/07/07 10:15:32;;;;;;;17.25;15.43;;;;;;;31.90;81.51;97551.09;4973745;28;20042;-69
2023/07/07 10:18:21;;;;;;;17.42;15.02;;;;;;;31.86;80.84;97543.97;5007389;28;20042;-68
2023/07/07 10:20:52;;;;;;;16.35;14.93;;;;;;;31.84;81.13;97540.78;5005268;28;20050;-68
2023/07/07 10:23:22;;;;;;;16.60;15.05;;;;;;;31.78;78.47;97534.03;4985421;28;20604;-69
2023/07/07 10:25:52;;;;;;;16.75;15.23;;;;;;;31.79;80.93;97532.84;4988519;28;20038;-70
2023/07/07 10:28:24;;;;;;;17.80;16.15;;;;;;;31.68;80.73;97531.84;5004693;28;20050;-69
2023/07/07 10:30:53;;;;;;;18.75;16.83;;;;;;;31.69;81.41;97523.25;4995362;28;20053;-69
2023/07/07 10:33:24;;;;;;;16.30;14.65;;;;;;;31.64;79.95;97523.56;4989932;28;20042;-69
2023/07/07 10:35:53;;;;;;;17.90;16.23;;;;;;;31.47;80.63;97515.69;5004470;28;20625;-69
2023/07/07 10:38:24;;;;;;;18.05;16.10;;;;;;;31.47;80.90;97510.22;4985224;28;20049;-69
2023/07/07 10:40:58;;;;;;;19.25;17.35;;;;;;;31.51;82.70;97506.41;4991556;28;20144;-70
2023/07/07 10:43:29;;;;;;;19.55;17.75;;;;;;;31.41;82.70;97509.72;5007421;28;20060;-70
2023/07/07 10:45:59;;;;;;;19.42;17.58;;;;;;;31.39;81.51;97508.47;5004664;28;20049;-69
2023/07/07 10:48:28;;;;;;;18.13;16.45;;;;;;;31.38;80.92;97501.44;5017831;28;20045;-71
2023/07/07 10:51:09;;;;;;;17.70;15.90;;;;;;;31.37;81.92;97506.13;5021902;28;20145;-69
2023/07/07 10:53:46;;;;;;;17.85;16.05;;;;;;;31.38;82.19;97510.41;5029678;28;20060;-69
2023/07/07 10:56:29;;;;;;;17.52;15.82;;;;;;;31.34;81.67;97503.28;5003243;28;20137;-70
2023/07/07 10:59:10;;;;;;;18.63;15.25;;;;;;;31.32;81.39;97511.88;5032176;28;20781;-69
2023/07/07 11:02:32;;;;;;;18.60;16.65;;;;;;;31.32;82.99;97502.88;5012777;28;20049;-70
2023/07/07 11:05:43;;;;;;;17.83;15.77;;;;;;;31.28;83.53;97496.53;4917213;29;20183;-71
2023/07/07 11:08:43;;;;;;;16.67;15.18;;;;;;;31.30;83.31;97499.69;5020182;28;20347;-71
2023/07/07 11:11:32;;;;;;;19.17;17.00;;;;;;;31.27;85.70;97487.50;5025743;28;20073;-70
2023/07/07 11:14:40;;;;;;;18.30;16.40;;;;;;;31.20;82.44;97488.13;5001641;28;20769;-69
2023/07/07 11:17:10;;;;;;;16.90;15.30;;;;;;;31.21;83.58;97481.53;4948745;28;20068;-72
2023/07/07 11:19:57;;;;;;;18.40;16.60;;;;;;;31.23;85.73;97481.16;5005759;28;20051;-70
2023/07/07 11:22:45;;;;;;;18.67;16.73;;;;;;;31.23;85.31;97469.44;4674389;28;10000503;-68
2023/07/07 11:25:54;;;;;;;19.00;17.17;;;;;;;31.20;85.21;97474.44;5006157;28;20529;-67
2023/07/07 11:28:47;;;;;;;18.38;15.75;;;;;;;31.18;86.38;97463.09;4991710;28;20050;-69
2023/07/07 11:31:49;;;;;;;18.23;15.90;;;;;;;31.16;85.00;97457.16;5014462;28;20045;-67
2023/07/07 11:34:54;;;;;;;18.23;16.08;;;;;;;31.12;86.34;97455.50;5012381;28;20253;-69
2023/07/07 11:37:27;;;;;;;17.92;16.20;;;;;;;31.15;85.46;97455.59;5005858;28;20126;-65
2023/07/07 11:40:28;;;;;;;20.52;17.23;;;;;;;31.12;86.33;97450.03;4999505;28;20136;-66
2023/07/07 11:43:15;;;;;;;20.33;15.35;;;;;;;31.07;86.39;97440.16;4992001;28;20056;-67
2023/07/07 11:46:08;;;;;;;19.08;17.25;;;;;;;31.09;85.88;97437.88;5001712;28;20054;-66
2023/07/07 11:48:40;;;;;;;18.60;16.65;;;;;;;31.17;86.59;97444.28;5008272;28;20064;-66
2023/07/07 11:51:13;;;;;;;18.92;16.95;;;;;;;31.18;87.10;97441.19;4994260;28;20045;-67
2023/07/07 11:53:43;;;;;;;21.25;16.70;;;;;;;31.14;86.17;97440.34;5003594;28;20051;-68
2023/07/07 11:56:54;;;;;;;19.17;15.10;;;;;;;31.12;86.36;97444.56;4997839;28;20237;-67